createdAt,value
2018-08-18T00:15:31.919Z,20.03
2018-08-18T00:31:06.322Z,20.43
2018-08-18T00:46:41.797Z,20.53
2018-08-18T01:02:16.175Z,20.07
2018-08-18T01:17:50.927Z,19.90
2018-08-18T01:33:25.139Z,17.60
2018-08-18T01:49:00.507Z,17.77
2018-08-18T02:04:34.820Z,20.67
2018-08-18T02:20:09.569Z,17.87
2018-08-18T02:35:44.087Z,19.10
2018-08-18T02:51:18.704Z,24.17
2018-08-18T03:06:53.028Z,16.70
2018-08-18T03:22:27.765Z,14.23
2018-08-18T03:38:02.625Z,12.90
2018-08-18T03:53:37.958Z,11.40
2018-08-18T04:09:13.689Z,11.47
2018-08-18T04:24:55.161Z,16.00
2018-08-18T04:40:30.117Z,11.33
2018-08-18T04:56:04.603Z,21.87
2018-08-18T05:11:39.400Z,20.57
2018-08-18T05:27:20.230Z,24.17
2018-08-18T05:42:54.495Z,21.07
2018-08-18T05:58:29.085Z,26.40
2018-08-18T06:14:03.587Z,21.90
2018-08-18T06:29:39.392Z,25.60
2018-08-18T06:45:14.064Z,24.93
2018-08-18T07:00:48.558Z,23.40
2018-08-18T07:16:23.224Z,16.93
2018-08-18T07:31:58.078Z,11.17
2018-08-18T07:47:48.626Z,8.63
2018-08-18T08:03:25.272Z,11.20
2018-08-18T08:18:58.660Z,12.37
2018-08-18T08:34:33.419Z,11.27
2018-08-18T08:50:08.771Z,6.87
2018-08-18T09:05:42.733Z,9.40
2018-08-18T09:21:17.302Z,9.43
2018-08-18T09:36:51.569Z,10.93
2018-08-18T09:52:28.276Z,8.27
2018-08-18T10:08:02.469Z,11.57
2018-08-18T10:23:36.825Z,7.60
2018-08-18T10:39:11.180Z,10.83
2018-08-18T10:54:44.359Z,12.23
2018-08-18T11:10:19.107Z,6.43
2018-08-18T11:25:59.988Z,11.03
2018-08-18T11:41:33.894Z,8.80
2018-08-18T11:57:07.210Z,7.20
2018-08-18T12:12:41.935Z,8.00
2018-08-18T12:28:16.880Z,9.30
2018-08-18T12:44:08.685Z,6.60
2018-08-18T12:59:43.059Z,9.07
2018-08-18T13:15:17.460Z,7.57
2018-08-18T13:30:51.719Z,10.23
2018-08-18T13:46:27.047Z,16.30
2018-08-18T14:02:02.467Z,8.17
2018-08-18T14:17:36.759Z,11.47
2018-08-18T14:33:11.077Z,5.10
2018-08-18T14:48:45.943Z,10.27
2018-08-18T15:04:19.718Z,7.70
2018-08-18T15:19:53.930Z,8.30
2018-08-18T15:35:28.387Z,10.50
2018-08-18T15:51:02.031Z,10.40
2018-08-18T16:06:36.090Z,15.07
2018-08-18T16:22:10.760Z,7.87
2018-08-18T16:37:47.979Z,10.03
2018-08-18T16:53:24.060Z,11.37
2018-08-18T17:08:58.575Z,12.57
2018-08-18T17:24:33.027Z,12.23
2018-08-18T17:40:08.226Z,14.27
2018-08-18T17:55:42.749Z,8.90
2018-08-18T18:11:17.055Z,10.43
2018-08-18T18:26:53.713Z,9.83
2018-08-18T18:42:28.017Z,12.97
2018-08-18T18:58:11.231Z,11.57
2018-08-18T19:13:45.387Z,20.53
2018-08-18T19:29:20.162Z,9.70
2018-08-18T19:44:56.576Z,11.03
2018-08-18T20:00:37.104Z,16.90
2018-08-18T20:16:12.479Z,12.90
2018-08-18T20:31:51.453Z,12.30
2018-08-18T20:47:26.282Z,17.80
2018-08-18T21:02:59.539Z,14.63
2018-08-18T21:18:33.934Z,14.67
2018-08-18T21:34:09.527Z,18.60
2018-08-18T21:49:43.747Z,16.27
2018-08-18T22:05:18.221Z,15.63
2018-08-18T22:20:53.008Z,17.77
2018-08-18T22:36:27.864Z,15.57
2018-08-18T22:52:01.832Z,16.70
2018-08-18T23:07:36.160Z,13.93
2018-08-18T23:23:15.442Z,15.77
2018-08-18T23:39:08.041Z,21.17
2018-08-18T23:54:42.641Z,18.33
